Address 0xa97b9d563ec617f50fe511a919244fc3afa8b24e 3

Txn Hash Method
Block
From
To
Value [Txn Fee]
0x07a6f0fe09c928646241b55533659fe1f1b16adca3175ea9c558e6cf10074319Invest251869892022-11-27 17:48:451 hr 14 mins ago0xa97b9d563ec617f50fe511a919244fc3afa8b24eOUT 0x7ea0cde9608c1c2b0816b98f8c3e746b17f5876e0 xDAI0.00036556
0xd5893abf5b27a6d8f32f8000041d3685ac3caac50cf3f9c347de3193f037a562Invest251869862022-11-27 17:48:301 hr 14 mins ago0xa97b9d563ec617f50fe511a919244fc3afa8b24eOUT 0x911bd54a287542afb9262f117da3cde7aa2b68f70 xDAI0.00036556
0xab66e9ec0f1ba60e5a2dc24c198303bfc963d1162617c13072835944356f8103Invest251869792022-11-27 17:47:501 hr 15 mins ago0xa97b9d563ec617f50fe511a919244fc3afa8b24eOUT 0xe69c62d334e6b9fe7fdfa9edd7a8acf860e7c63c0 xDAI0.00036556
0x9eb66cd3cf6c48d0375cf8395df0d4bf1c2d85a2f64422ef4530043c7934f64eInvest251858822022-11-27 16:09:252 hrs 54 mins ago0xa97b9d563ec617f50fe511a919244fc3afa8b24eOUT 0x7ea0cde9608c1c2b0816b98f8c3e746b17f5876e0 xDAI0.000274170001
0x5e0d680915df43a541c32cb8b0a9d09d1d9b09f322a9f2be89b30f85c8e1759dInvest251839442022-11-27 13:15:055 hrs 48 mins ago0xa97b9d563ec617f50fe511a919244fc3afa8b24eOUT 0xe69c62d334e6b9fe7fdfa9edd7a8acf860e7c63c0 xDAI0.000292900558
0x7ca276d38dd18ece3b1c0fc8c73f91d33e98b424c81489ec9e606468c21bef74Invest251838312022-11-27 13:05:005 hrs 58 mins ago0xa97b9d563ec617f50fe511a919244fc3afa8b24eOUT 0x7ea0cde9608c1c2b0816b98f8c3e746b17f5876e0 xDAI0.000284332936
0x59760961d6e11bf0def89aba77b95ab3f2ca6038f294d19fe0ceab30bd904eb0Invest251835372022-11-27 12:38:356 hrs 24 mins ago0xa97b9d563ec617f50fe511a919244fc3afa8b24eOUT 0x7ea0cde9608c1c2b0816b98f8c3e746b17f5876e0 xDAI0.000275997801
0x45c040c695d5ad896f900724ef78f185e73bffaf4b6dc1b89adf2c3bdc03ab1eInvest251812572022-11-27 9:13:459 hrs 49 mins ago0xa97b9d563ec617f50fe511a919244fc3afa8b24eOUT 0xe69c62d334e6b9fe7fdfa9edd7a8acf860e7c63c0 xDAI0.000329004002
0xbc062848b56574a4ebd8018302ccb3a3a920cb9c7065a88161e42272e3afa5daInvest251771772022-11-27 3:07:4015 hrs 55 mins ago0xa97b9d563ec617f50fe511a919244fc3afa8b24eOUT 0xe69c62d334e6b9fe7fdfa9edd7a8acf860e7c63c0 xDAI0.000365536
0x79be56e6ec9113848b0fb03ac8d76e26d4fd18603a6d5b89d2ba32fef48ac034Invest251769822022-11-27 2:50:1016 hrs 13 mins ago0xa97b9d563ec617f50fe511a919244fc3afa8b24eOUT 0xe69c62d334e6b9fe7fdfa9edd7a8acf860e7c63c0 xDAI0.00036556
0xb3d6716e39f3c12253b4f570af7bc45c0313bd31297d83acacf122eaec675e24Invest251761092022-11-27 1:31:4517 hrs 31 mins ago0xa97b9d563ec617f50fe511a919244fc3afa8b24eOUT 0x7ea0cde9608c1c2b0816b98f8c3e746b17f5876e0 xDAI0.00036556
0xf1f3d6c8868f77a542f2a3d11500fd5410b7f3df7a5a6b6cbcfa600709047133Invest251746892022-11-26 23:24:1519 hrs 39 mins ago0xa97b9d563ec617f50fe511a919244fc3afa8b24eOUT 0xe69c62d334e6b9fe7fdfa9edd7a8acf860e7c63c0 xDAI0.000365536
0x1ba111e216d7b6d3f38b9be5192c2b0d3aba3097ee1e7a4af6314ccec36bc37bInvest251746822022-11-26 23:23:4019 hrs 39 mins ago0xa97b9d563ec617f50fe511a919244fc3afa8b24eOUT 0x28cd883da57bf1e40554b826e400d160f7f8f5750 xDAI0.000365536
0xb0c9a150b5ec1bcbd08e27b205ec3b1ae9c949643a68aa15830cab2f274130b5Invest251746792022-11-26 23:23:2019 hrs 40 mins ago0xa97b9d563ec617f50fe511a919244fc3afa8b24eOUT 0x6587e934ffd995c88131db6bea36386081b6eb570 xDAI0.000262936
0xcacabb1f736be11dbaa8aedb2daf6448192eb9206304b8a5736f6e31f0633742Invest251746752022-11-26 23:23:0019 hrs 40 mins ago0xa97b9d563ec617f50fe511a919244fc3afa8b24eOUT 0x242dca46c15ac2012468bd130cac09ab8e7fdfe30 xDAI0.000262936
0x918b8b938c1a00df3542cc61b8564f413fd09bf66a2c2de98878c3573f30c457Invest251746712022-11-26 23:22:4019 hrs 40 mins ago0xa97b9d563ec617f50fe511a919244fc3afa8b24eOUT 0x911bd54a287542afb9262f117da3cde7aa2b68f70 xDAI0.00026296
0xed53adbcb6b1e478597a701ecc2b6b8d08435585786d91f10f72f9db9939b90cCashout Frozen A...251744432022-11-26 23:02:1020 hrs 1 min ago0xa97b9d563ec617f50fe511a919244fc3afa8b24eOUT 0xb70e45a402a3db3831cb1729047a46e6365ed0590 xDAI0.000280368001
0x153a74544cc2bde73ac392c57e9f20a7bafc29bcd74234331992e0ebd243fcd10x82e02f30251744402022-11-26 23:01:5520 hrs 1 min ago0xa97b9d563ec617f50fe511a919244fc3afa8b24eOUT 0x9c2010eea1582c42236c7d421115e7bc10b48ce00 xDAI0.000091692
0x704be90a27c708df47f09f49104dcd8f9b0c1710921997299ac64e010af6bf25Invest251744382022-11-26 23:01:4520 hrs 1 min ago0xa97b9d563ec617f50fe511a919244fc3afa8b24eOUT 0x9c2010eea1582c42236c7d421115e7bc10b48ce00 xDAI0.000365292
0x76042ce62da1d0679b65db2bd3fccee92efe1891aae43be1fb9819282cd8ddc5Invest251743292022-11-26 22:51:5520 hrs 11 mins ago0xa97b9d563ec617f50fe511a919244fc3afa8b24eOUT 0x242dca46c15ac2012468bd130cac09ab8e7fdfe30 xDAI0.0003545932
0x8b5f77d7c5b874dc2158604351bc6432e9dd7aabcd96f27a2191b57e2403214cInvest251739082022-11-26 22:14:1020 hrs 49 mins ago0xa97b9d563ec617f50fe511a919244fc3afa8b24eOUT 0xe69c62d334e6b9fe7fdfa9edd7a8acf860e7c63c0 xDAI0.000365536
0xb02213a0b553a4e9ed239ef54a5d6f6c314068921703d152c5f713b34480dca7Invest251738182022-11-26 22:06:0520 hrs 57 mins ago0xa97b9d563ec617f50fe511a919244fc3afa8b24eOUT 0x242dca46c15ac2012468bd130cac09ab8e7fdfe30 xDAI0.000365536
0xed9948c6a5ef093c21a694a3de7b55b6f986686e6828bf09929c417680813673Invest251732702022-11-26 21:16:5521 hrs 46 mins ago0xa97b9d563ec617f50fe511a919244fc3afa8b24eOUT 0x911bd54a287542afb9262f117da3cde7aa2b68f70 xDAI0.00036556
0xcbe24e54104c836f45f47f8ac9b45b87cb5b787c0c2e805cac6128ddcb086451Invest251724572022-11-26 20:03:5522 hrs 59 mins ago0xa97b9d563ec617f50fe511a919244fc3afa8b24eOUT 0x911bd54a287542afb9262f117da3cde7aa2b68f70 xDAI0.000365536
0x10351cdcc1ae65e46d08a853843bbfdcd9da4af9053e6a1460e28a420361ff5bInvest251720062022-11-26 19:23:3023 hrs 39 mins ago0xa97b9d563ec617f50fe511a919244fc3afa8b24eOUT 0xe69c62d334e6b9fe7fdfa9edd7a8acf860e7c63c0 xDAI0.000365536
[ Download CSV Export 
Parent Txn Hash Block From To Value
Loading

Contract Name:
0

Compiler Version
0

Optimization Enabled:
0

Other Settings:
-NA-
Block Transaction Gas Used Reward
Age Block Fee Address BC Fee Address Voting Power Jailed Incoming
Block Uncle Number Difficulty Gas Used Reward
Loading
Make sure to use the "Vote Down" button for any spammy posts, and the "Vote Up" for interesting conversations.